sensor_id;sensor_type;location;lat;lon;timestamp;pressure;altitude;pressure_sealevel;temperature;humidity
55468;BME280;41332;42.702;23.200;2022-12-18T00:01:37;94723.78;;;6.55;80.84
55468;BME280;41332;42.702;23.200;2022-12-18T00:04:04;94727.66;;;6.58;81.36
55468;BME280;41332;42.702;23.200;2022-12-18T00:06:32;94726.25;;;6.41;81.59
55468;BME280;41332;42.702;23.200;2022-12-18T00:08:59;94735.59;;;6.48;82.10
55468;BME280;41332;42.702;23.200;2022-12-18T00:11:27;94733.00;;;6.48;81.58
55468;BME280;41332;42.702;23.200;2022-12-18T00:13:55;94734.31;;;6.45;81.79
55468;BME280;41332;42.702;23.200;2022-12-18T00:16:22;94730.53;;;6.32;82.01
55468;BME280;41332;42.702;23.200;2022-12-18T00:18:50;94745.25;;;6.23;82.63
55468;BME280;41332;42.702;23.200;2022-12-18T00:21:16;94743.06;;;6.30;82.07
55468;BME280;41332;42.702;23.200;2022-12-18T00:23:43;94737.41;;;6.23;81.69
55468;BME280;41332;42.702;23.200;2022-12-18T00:26:20;94746.53;;;6.25;81.63
55468;BME280;41332;42.702;23.200;2022-12-18T00:28:45;94745.28;;;6.18;80.65
55468;BME280;41332;42.702;23.200;2022-12-18T00:31:14;94740.63;;;6.15;80.71
55468;BME280;41332;42.702;23.200;2022-12-18T00:33:41;94758.47;;;6.02;80.75
55468;BME280;41332;42.702;23.200;2022-12-18T00:36:16;94757.09;;;5.75;81.49
55468;BME280;41332;42.702;23.200;2022-12-18T00:38:44;94764.38;;;5.78;81.97
55468;BME280;41332;42.702;23.200;2022-12-18T00:41:10;94764.38;;;5.78;82.37
55468;BME280;41332;42.702;23.200;2022-12-18T00:43:37;94755.06;;;5.67;81.99
55468;BME280;41332;42.702;23.200;2022-12-18T00:46:02;94763.66;;;5.68;82.14
55468;BME280;41332;42.702;23.200;2022-12-18T00:48:28;94771.50;;;5.63;82.38
55468;BME280;41332;42.702;23.200;2022-12-18T00:50:53;94762.69;;;5.58;82.27
55468;BME280;41332;42.702;23.200;2022-12-18T00:53:19;94769.50;;;5.54;82.09
55468;BME280;41332;42.702;23.200;2022-12-18T00:55:45;94781.22;;;5.52;82.36
55468;BME280;41332;42.702;23.200;2022-12-18T00:58:11;94778.16;;;5.39;82.26
55468;BME280;41332;42.702;23.200;2022-12-18T01:00:37;94789.13;;;5.36;82.77
55468;BME280;41332;42.702;23.200;2022-12-18T01:03:03;94773.72;;;5.45;82.84
55468;BME280;41332;42.702;23.200;2022-12-18T01:05:29;94783.81;;;5.57;82.79
55468;BME280;41332;42.702;23.200;2022-12-18T01:07:55;94782.50;;;5.59;82.40
55468;BME280;41332;42.702;23.200;2022-12-18T01:10:22;94784.25;;;5.64;81.77
55468;BME280;41332;42.702;23.200;2022-12-18T01:12:47;94790.03;;;5.61;81.50
55468;BME280;41332;42.702;23.200;2022-12-18T01:15:14;94795.25;;;5.61;80.52
55468;BME280;41332;42.702;23.200;2022-12-18T01:17:39;94790.88;;;5.51;81.11
55468;BME280;41332;42.702;23.200;2022-12-18T01:20:06;94794.81;;;5.43;80.70
55468;BME280;41332;42.702;23.200;2022-12-18T01:22:32;94796.38;;;5.44;80.61
55468;BME280;41332;42.702;23.200;2022-12-18T01:24:58;94797.91;;;5.51;80.43
55468;BME280;41332;42.702;23.200;2022-12-18T01:27:23;94796.31;;;5.55;80.59
55468;BME280;41332;42.702;23.200;2022-12-18T01:29:49;94789.03;;;5.57;80.09
55468;BME280;41332;42.702;23.200;2022-12-18T01:32:14;94770.06;;;5.41;80.04
55468;BME280;41332;42.702;23.200;2022-12-18T01:34:40;94790.06;;;5.56;80.10
55468;BME280;41332;42.702;23.200;2022-12-18T01:37:05;94797.91;;;5.51;80.56
55468;BME280;41332;42.702;23.200;2022-12-18T01:39:31;94794.53;;;5.50;80.02
55468;BME280;41332;42.702;23.200;2022-12-18T01:41:59;94809.09;;;5.51;80.29
55468;BME280;41332;42.702;23.200;2022-12-18T01:49:48;94810.41;;;5.49;80.43
55468;BME280;41332;42.702;23.200;2022-12-18T01:52:13;94813.03;;;5.49;79.98
55468;BME280;41332;42.702;23.200;2022-12-18T01:54:39;94818.75;;;5.51;80.42
55468;BME280;41332;42.702;23.200;2022-12-18T01:57:05;94813.81;;;5.49;80.75
55468;BME280;41332;42.702;23.200;2022-12-18T01:59:32;94812.78;;;5.50;80.22
55468;BME280;41332;42.702;23.200;2022-12-18T02:01:59;94813.66;;;5.30;81.17
55468;BME280;41332;42.702;23.200;2022-12-18T02:04:26;94815.72;;;5.33;80.76
55468;BME280;41332;42.702;23.200;2022-12-18T02:09:31;94820.38;;;5.41;80.33
55468;BME280;41332;42.702;23.200;2022-12-18T02:12:07;94825.28;;;5.48;80.80
55468;BME280;41332;42.702;23.200;2022-12-18T02:15:00;94826.31;;;5.52;79.85
55468;BME280;41332;42.702;23.200;2022-12-18T02:23:06;94835.44;;;5.50;79.85
55468;BME280;41332;42.702;23.200;2022-12-18T02:25:52;94836.56;;;5.33;80.17
55468;BME280;41332;42.702;23.200;2022-12-18T02:28:23;94830.66;;;5.17;80.28
55468;BME280;41332;42.702;23.200;2022-12-18T02:30:51;94839.84;;;4.94;80.52
55468;BME280;41332;42.702;23.200;2022-12-18T02:33:19;94833.59;;;4.90;79.99
55468;BME280;41332;42.702;23.200;2022-12-18T02:35:46;94841.16;;;4.91;80.71
55468;BME280;41332;42.702;23.200;2022-12-18T02:38:13;94840.63;;;4.94;80.70
55468;BME280;41332;42.702;23.200;2022-12-18T02:40:40;94832.31;;;4.87;80.66
55468;BME280;41332;42.702;23.200;2022-12-18T02:43:13;94844.28;;;4.93;80.38
55468;BME280;41332;42.702;23.200;2022-12-18T02:45:59;94837.78;;;4.91;81.32
55468;BME280;41332;42.702;23.200;2022-12-18T02:48:31;94853.38;;;4.96;80.95
55468;BME280;41332;42.702;23.200;2022-12-18T02:53:37;94857.03;;;4.95;80.81
55468;BME280;41332;42.702;23.200;2022-12-18T02:56:14;94854.97;;;4.87;80.69
55468;BME280;41332;42.702;23.200;2022-12-18T02:58:57;94866.16;;;4.92;80.93
55468;BME280;41332;42.702;23.200;2022-12-18T03:01:46;94869.78;;;4.91;80.62
55468;BME280;41332;42.702;23.200;2022-12-18T03:04:30;94864.34;;;4.83;81.02
55468;BME280;41332;42.702;23.200;2022-12-18T03:07:02;94862.78;;;4.87;80.64
55468;BME280;41332;42.702;23.200;2022-12-18T03:09:37;94869.31;;;4.79;79.94
55468;BME280;41332;42.702;23.200;2022-12-18T03:12:15;94858.63;;;4.75;80.17
55468;BME280;41332;42.702;23.200;2022-12-18T03:14:56;94865.19;;;4.57;80.54
55468;BME280;41332;42.702;23.200;2022-12-18T03:17:26;94871.44;;;4.46;80.98
55468;BME280;41332;42.702;23.200;2022-12-18T03:19:51;94873.25;;;4.40;81.68
55468;BME280;41332;42.702;23.200;2022-12-18T03:22:18;94871.16;;;4.27;81.71
55468;BME280;41332;42.702;23.200;2022-12-18T03:24:45;94876.63;;;4.20;82.39
55468;BME280;41332;42.702;23.200;2022-12-18T03:27:14;94882.63;;;4.31;82.13
55468;BME280;41332;42.702;23.200;2022-12-18T03:29:47;94883.41;;;4.16;82.03
55468;BME280;41332;42.702;23.200;2022-12-18T03:32:27;94882.63;;;4.00;82.40
55468;BME280;41332;42.702;23.200;2022-12-18T03:34:55;94885.72;;;4.07;82.47
55468;BME280;41332;42.702;23.200;2022-12-18T03:37:22;94883.66;;;4.04;82.37
55468;BME280;41332;42.702;23.200;2022-12-18T03:39:48;94891.66;;;3.77;82.54
55468;BME280;41332;42.702;23.200;2022-12-18T03:42:28;94897.13;;;3.75;83.80
55468;BME280;41332;42.702;23.200;2022-12-18T03:47:59;94914.84;;;4.04;82.57
55468;BME280;41332;42.702;23.200;2022-12-18T03:51:03;94921.06;;;3.98;81.78
55468;BME280;41332;42.702;23.200;2022-12-18T03:56:15;94923.91;;;3.86;81.80
55468;BME280;41332;42.702;23.200;2022-12-18T03:58:42;94922.09;;;3.92;82.19
55468;BME280;41332;42.702;23.200;2022-12-18T04:01:10;94916.38;;;3.90;81.10
55468;BME280;41332;42.702;23.200;2022-12-18T04:03:38;94916.59;;;3.73;81.16
55468;BME280;41332;42.702;23.200;2022-12-18T04:06:05;94920.50;;;3.70;81.40
55468;BME280;41332;42.702;23.200;2022-12-18T04:08:32;94911.91;;;3.70;81.20
55468;BME280;41332;42.702;23.200;2022-12-18T04:11:00;94915.81;;;3.72;81.71
55468;BME280;41332;42.702;23.200;2022-12-18T04:13:32;94916.25;;;3.43;81.81
55468;BME280;41332;42.702;23.200;2022-12-18T04:15:58;94938.31;;;3.41;81.72
55468;BME280;41332;42.702;23.200;2022-12-18T04:18:23;94941.16;;;3.34;81.63
55468;BME280;41332;42.702;23.200;2022-12-18T04:20:48;94941.66;;;3.36;82.04
55468;BME280;41332;42.702;23.200;2022-12-18T04:23:14;94939.59;;;3.38;81.21
55468;BME280;41332;42.702;23.200;2022-12-18T04:25:39;94950.06;;;3.54;81.31
55468;BME280;41332;42.702;23.200;2022-12-18T04:28:04;94966.94;;;3.56;80.75
55468;BME280;41332;42.702;23.200;2022-12-18T04:30:30;94967.22;;;3.55;80.74
55468;BME280;41332;42.702;23.200;2022-12-18T04:32:55;94961.47;;;3.53;80.96
55468;BME280;41332;42.702;23.200;2022-12-18T04:35:21;94966.69;;;3.58;80.67
55468;BME280;41332;42.702;23.200;2022-12-18T04:37:46;94972.44;;;3.65;80.11
55468;BME280;41332;42.702;23.200;2022-12-18T04:40:13;94973.47;;;3.64;79.89
55468;BME280;41332;42.702;23.200;2022-12-18T04:42:39;94987.78;;;3.67;80.01
55468;BME280;41332;42.702;23.200;2022-12-18T04:45:06;94982.88;;;3.75;79.72
55468;BME280;41332;42.702;23.200;2022-12-18T04:47:31;94984.97;;;3.84;79.56
55468;BME280;41332;42.702;23.200;2022-12-18T04:49:57;94990.38;;;3.67;78.80
55468;BME280;41332;42.702;23.200;2022-12-18T04:52:22;94988.56;;;3.72;79.61
55468;BME280;41332;42.702;23.200;2022-12-18T04:54:47;94992.50;;;3.80;79.40
55468;BME280;41332;42.702;23.200;2022-12-18T04:57:13;94991.22;;;3.83;78.71
55468;BME280;41332;42.702;23.200;2022-12-18T04:59:39;94996.44;;;3.88;79.33
55468;BME280;41332;42.702;23.200;2022-12-18T05:02:04;94990.72;;;3.86;78.88
55468;BME280;41332;42.702;23.200;2022-12-18T05:04:29;95008.88;;;3.81;78.41
55468;BME280;41332;42.702;23.200;2022-12-18T05:06:55;94997.69;;;3.75;78.13
55468;BME280;41332;42.702;23.200;2022-12-18T05:09:20;95011.47;;;3.75;78.05
55468;BME280;41332;42.702;23.200;2022-12-18T05:11:46;95001.53;;;3.67;78.58
55468;BME280;41332;42.702;23.200;2022-12-18T05:14:12;95020.28;;;3.69;78.85
55468;BME280;41332;42.702;23.200;2022-12-18T05:16:37;95019.44;;;3.63;78.84
55468;BME280;41332;42.702;23.200;2022-12-18T05:19:02;95021.28;;;3.63;78.16
55468;BME280;41332;42.702;23.200;2022-12-18T05:21:28;95036.13;;;3.68;78.37
55468;BME280;41332;42.702;23.200;2022-12-18T05:23:53;95035.28;;;3.62;78.21
55468;BME280;41332;42.702;23.200;2022-12-18T05:26:19;95040.94;;;3.49;78.52
55468;BME280;41332;42.702;23.200;2022-12-18T05:28:45;95043.53;;;3.43;78.75
55468;BME280;41332;42.702;23.200;2022-12-18T05:31:11;95044.44;;;3.27;78.74
55468;BME280;41332;42.702;23.200;2022-12-18T05:33:36;95050.19;;;3.29;78.52
55468;BME280;41332;42.702;23.200;2022-12-18T05:36:04;95044.50;;;3.37;79.08
55468;BME280;41332;42.702;23.200;2022-12-18T05:38:32;95053.09;;;3.43;79.18
55468;BME280;41332;42.702;23.200;2022-12-18T05:40:57;95050.53;;;3.48;78.35
55468;BME280;41332;42.702;23.200;2022-12-18T05:43:24;95066.66;;;3.50;78.62
55468;BME280;41332;42.702;23.200;2022-12-18T05:45:50;95066.34;;;3.41;77.96
55468;BME280;41332;42.702;23.200;2022-12-18T05:48:17;95063.25;;;3.39;77.75
55468;BME280;41332;42.702;23.200;2022-12-18T05:50:47;95071.59;;;3.52;77.21
55468;BME280;41332;42.702;23.200;2022-12-18T05:53:18;95081.25;;;3.56;77.56
55468;BME280;41332;42.702;23.200;2022-12-18T05:55:45;95074.06;;;3.31;78.05
55468;BME280;41332;42.702;23.200;2022-12-18T05:58:11;95077.31;;;3.49;77.67
55468;BME280;41332;42.702;23.200;2022-12-18T06:00:40;95071.88;;;3.50;78.22
55468;BME280;41332;42.702;23.200;2022-12-18T06:03:06;95085.97;;;3.65;78.00
55468;BME280;41332;42.702;23.200;2022-12-18T06:05:41;95083.34;;;3.59;77.56
55468;BME280;41332;42.702;23.200;2022-12-18T06:08:08;95098.44;;;3.62;77.41
55468;BME280;41332;42.702;23.200;2022-12-18T06:10:34;95091.03;;;3.44;77.53
55468;BME280;41332;42.702;23.200;2022-12-18T06:12:59;95088.75;;;3.53;77.49
55468;BME280;41332;42.702;23.200;2022-12-18T06:15:25;95087.72;;;3.49;77.43
55468;BME280;41332;42.702;23.200;2022-12-18T06:17:51;95098.28;;;3.37;77.18
55468;BME280;41332;42.702;23.200;2022-12-18T06:20:17;95102.41;;;3.38;77.34
55468;BME280;41332;42.702;23.200;2022-12-18T06:22:42;95104.53;;;3.41;77.21
55468;BME280;41332;42.702;23.200;2022-12-18T06:25:08;95111.97;;;3.27;76.80
55468;BME280;41332;42.702;23.200;2022-12-18T06:27:34;95102.56;;;3.21;77.69
55468;BME280;41332;42.702;23.200;2022-12-18T06:30:00;95109.38;;;3.27;77.30
55468;BME280;41332;42.702;23.200;2022-12-18T06:32:26;95104.00;;;3.06;78.02
55468;BME280;41332;42.702;23.200;2022-12-18T06:34:51;95109.56;;;2.88;78.22
55468;BME280;41332;42.702;23.200;2022-12-18T06:37:18;95121.13;;;3.02;79.23
55468;BME280;41332;42.702;23.200;2022-12-18T06:39:43;95127.47;;;3.17;78.65
55468;BME280;41332;42.702;23.200;2022-12-18T06:42:08;95120.22;;;3.19;78.75
55468;BME280;41332;42.702;23.200;2022-12-18T06:44:34;95121.38;;;3.33;77.70
55468;BME280;41332;42.702;23.200;2022-12-18T06:47:00;95119.47;;;3.23;77.95
55468;BME280;41332;42.702;23.200;2022-12-18T06:49:26;95134.22;;;3.18;78.39
55468;BME280;41332;42.702;23.200;2022-12-18T06:51:51;95139.59;;;3.06;78.64
55468;BME280;41332;42.702;23.200;2022-12-18T06:54:17;95130.25;;;3.10;78.28
55468;BME280;41332;42.702;23.200;2022-12-18T06:56:45;95139.41;;;3.18;77.79
55468;BME280;41332;42.702;23.200;2022-12-18T06:59:10;95139.94;;;3.15;78.04
55468;BME280;41332;42.702;23.200;2022-12-18T07:01:35;95132.88;;;3.10;78.02
55468;BME280;41332;42.702;23.200;2022-12-18T07:04:01;95144.91;;;3.21;78.21
55468;BME280;41332;42.702;23.200;2022-12-18T07:06:26;95139.53;;;3.33;77.50
55468;BME280;41332;42.702;23.200;2022-12-18T07:08:53;95152.56;;;3.38;76.95
55468;BME280;41332;42.702;23.200;2022-12-18T07:11:19;95153.16;;;3.51;77.33
55468;BME280;41332;42.702;23.200;2022-12-18T07:13:45;95151.41;;;3.56;77.01
55468;BME280;41332;42.702;23.200;2022-12-18T07:16:18;95153.50;;;3.59;76.92
55468;BME280;41332;42.702;23.200;2022-12-18T07:18:44;95156.16;;;3.70;76.22
55468;BME280;41332;42.702;23.200;2022-12-18T07:21:13;95156.78;;;3.82;76.16
55468;BME280;41332;42.702;23.200;2022-12-18T07:23:39;95168.78;;;3.88;75.49
55468;BME280;41332;42.702;23.200;2022-12-18T07:26:07;95166.97;;;3.94;75.42
55468;BME280;41332;42.702;23.200;2022-12-18T07:28:35;95162.31;;;4.01;75.94
55468;BME280;41332;42.702;23.200;2022-12-18T07:31:11;95170.41;;;4.05;75.23
55468;BME280;41332;42.702;23.200;2022-12-18T07:33:37;95165.25;;;4.10;75.25
55468;BME280;41332;42.702;23.200;2022-12-18T07:36:04;95161.00;;;3.99;74.51
55468;BME280;41332;42.702;23.200;2022-12-18T07:38:31;95150.81;;;3.87;74.30
55468;BME280;41332;42.702;23.200;2022-12-18T07:41:02;95169.63;;;3.99;74.56
55468;BME280;41332;42.702;23.200;2022-12-18T07:43:28;95173.50;;;3.96;74.30
55468;BME280;41332;42.702;23.200;2022-12-18T07:45:53;95177.09;;;3.90;73.96
55468;BME280;41332;42.702;23.200;2022-12-18T07:48:19;95175.53;;;3.89;73.57
55468;BME280;41332;42.702;23.200;2022-12-18T07:50:47;95171.84;;;3.85;74.52
55468;BME280;41332;42.702;23.200;2022-12-18T07:53:13;95177.53;;;3.77;74.32
55468;BME280;41332;42.702;23.200;2022-12-18T07:55:40;95166.53;;;3.65;75.09
55468;BME280;41332;42.702;23.200;2022-12-18T07:58:07;95184.78;;;3.75;75.09
55468;BME280;41332;42.702;23.200;2022-12-18T08:00:33;95195.16;;;3.70;74.50
55468;BME280;41332;42.702;23.200;2022-12-18T08:02:58;95198.97;;;3.62;75.17
55468;BME280;41332;42.702;23.200;2022-12-18T08:05:23;95195.81;;;3.55;75.05
55468;BME280;41332;42.702;23.200;2022-12-18T08:07:49;95199.94;;;3.51;74.93
55468;BME280;41332;42.702;23.200;2022-12-18T08:10:15;95201.47;;;3.46;75.71
55468;BME280;41332;42.702;23.200;2022-12-18T08:12:40;95203.00;;;3.42;75.59
55468;BME280;41332;42.702;23.200;2022-12-18T08:15:06;95204.31;;;3.45;75.97
55468;BME280;41332;42.702;23.200;2022-12-18T08:17:32;95212.09;;;3.45;76.22
55468;BME280;41332;42.702;23.200;2022-12-18T08:19:57;95222.00;;;3.48;75.64
55468;BME280;41332;42.702;23.200;2022-12-18T08:22:23;95217.59;;;3.49;75.65
55468;BME280;41332;42.702;23.200;2022-12-18T08:24:48;95223.59;;;3.54;75.16
55468;BME280;41332;42.702;23.200;2022-12-18T08:27:14;95214.75;;;3.50;75.41
55468;BME280;41332;42.702;23.200;2022-12-18T08:29:39;95224.63;;;3.53;75.79
55468;BME280;41332;42.702;23.200;2022-12-18T08:32:05;95232.47;;;3.58;75.10
55468;BME280;41332;42.702;23.200;2022-12-18T08:34:30;95233.78;;;3.61;75.69
55468;BME280;41332;42.702;23.200;2022-12-18T08:36:55;95223.94;;;3.63;74.74
55468;BME280;41332;42.702;23.200;2022-12-18T08:39:21;95233.81;;;3.66;75.37
55468;BME280;41332;42.702;23.200;2022-12-18T08:41:46;95232.03;;;3.67;74.74
55468;BME280;41332;42.702;23.200;2022-12-18T08:44:32;95234.97;;;3.75;74.67
55468;BME280;41332;42.702;23.200;2022-12-18T08:47:03;95236.31;;;3.83;74.26
55468;BME280;41332;42.702;23.200;2022-12-18T08:49:29;95242.81;;;3.81;74.60
55468;BME280;41332;42.702;23.200;2022-12-18T08:51:55;95244.34;;;3.82;74.74
55468;BME280;41332;42.702;23.200;2022-12-18T08:54:22;95238.63;;;3.79;73.73
55468;BME280;41332;42.702;23.200;2022-12-18T08:56:48;95243.78;;;3.74;74.19
55468;BME280;41332;42.702;23.200;2022-12-18T08:59:18;95235.94;;;3.69;74.66
55468;BME280;41332;42.702;23.200;2022-12-18T09:01:45;95237.84;;;3.79;74.67
55468;BME280;41332;42.702;23.200;2022-12-18T09:04:11;95233.94;;;3.82;74.82
55468;BME280;41332;42.702;23.200;2022-12-18T09:06:37;95238.19;;;3.93;74.65
55468;BME280;41332;42.702;23.200;2022-12-18T09:09:03;95232.19;;;3.87;73.30
55468;BME280;41332;42.702;23.200;2022-12-18T09:11:30;95237.44;;;3.92;73.79
55468;BME280;41332;42.702;23.200;2022-12-18T09:13:57;95242.41;;;3.99;72.58
55468;BME280;41332;42.702;23.200;2022-12-18T09:16:25;95245.00;;;3.99;72.31
55468;BME280;41332;42.702;23.200;2022-12-18T09:18:51;95242.44;;;4.04;72.79
55468;BME280;41332;42.702;23.200;2022-12-18T09:21:18;95241.44;;;4.10;72.40
55468;BME280;41332;42.702;23.200;2022-12-18T09:23:49;95232.63;;;4.17;71.56
55468;BME280;41332;42.702;23.200;2022-12-18T09:26:15;95236.53;;;4.19;71.54
55468;BME280;41332;42.702;23.200;2022-12-18T09:28:40;95235.00;;;4.18;72.20
55468;BME280;41332;42.702;23.200;2022-12-18T09:31:07;95240.50;;;4.27;71.73
55468;BME280;41332;42.702;23.200;2022-12-18T09:33:34;95237.41;;;4.30;71.62
55468;BME280;41332;42.702;23.200;2022-12-18T09:36:05;95246.19;;;4.24;71.11
55468;BME280;41332;42.702;23.200;2022-12-18T09:38:31;95239.47;;;4.28;70.88
55468;BME280;41332;42.702;23.200;2022-12-18T09:41:00;95239.19;;;4.29;71.10
55468;BME280;41332;42.702;23.200;2022-12-18T09:43:49;95238.75;;;4.38;71.22
55468;BME280;41332;42.702;23.200;2022-12-18T09:46:20;95237.47;;;4.40;69.76
55468;BME280;41332;42.702;23.200;2022-12-18T09:48:52;95240.53;;;4.32;69.30
55468;BME280;41332;42.702;23.200;2022-12-18T09:51:32;95235.25;;;4.22;69.74
55468;BME280;41332;42.702;23.200;2022-12-18T09:54:06;95233.66;;;4.10;70.33
55468;BME280;41332;42.702;23.200;2022-12-18T09:56:36;95233.09;;;4.08;70.03
55468;BME280;41332;42.702;23.200;2022-12-18T09:59:04;95244.34;;;4.19;70.20
55468;BME280;41332;42.702;23.200;2022-12-18T10:01:31;95231.09;;;4.16;70.11
55468;BME280;41332;42.702;23.200;2022-12-18T10:03:58;95233.13;;;4.13;70.00
55468;BME280;41332;42.702;23.200;2022-12-18T10:11:35;95234.50;;;4.26;70.88
55468;BME280;41332;42.702;23.200;2022-12-18T10:14:26;95237.13;;;4.26;70.17
55468;BME280;41332;42.702;23.200;2022-12-18T10:17:12;95226.97;;;4.25;69.99
55468;BME280;41332;42.702;23.200;2022-12-18T10:25:33;95235.78;;;4.19;69.15
55468;BME280;41332;42.702;23.200;2022-12-18T10:28:12;95240.97;;;4.19;69.67
55468;BME280;41332;42.702;23.200;2022-12-18T10:30:39;95235.97;;;4.07;69.45
55468;BME280;41332;42.702;23.200;2022-12-18T10:33:05;95246.09;;;4.08;68.86
55468;BME280;41332;42.702;23.200;2022-12-18T10:35:31;95243.94;;;3.95;68.93
55468;BME280;41332;42.702;23.200;2022-12-18T10:38:04;95241.34;;;3.95;69.78
55468;BME280;41332;42.702;23.200;2022-12-18T10:40:30;95241.81;;;3.92;69.79
55468;BME280;41332;42.702;23.200;2022-12-18T10:43:12;95237.88;;;3.84;70.44
55468;BME280;41332;42.702;23.200;2022-12-18T10:45:38;95237.94;;;3.94;69.82
55468;BME280;41332;42.702;23.200;2022-12-18T10:48:04;95238.97;;;3.88;68.60
55468;BME280;41332;42.702;23.200;2022-12-18T10:50:46;95241.44;;;4.10;68.98
55468;BME280;41332;42.702;23.200;2022-12-18T10:53:18;95241.41;;;4.05;68.81
55468;BME280;41332;42.702;23.200;2022-12-18T10:55:47;95237.06;;;4.16;68.94
55468;BME280;41332;42.702;23.200;2022-12-18T10:58:28;95237.63;;;4.23;68.92
55468;BME280;41332;42.702;23.200;2022-12-18T11:01:16;95240.97;;;4.19;68.81
55468;BME280;41332;42.702;23.200;2022-12-18T11:06:17;95234.25;;;4.28;67.68
55468;BME280;41332;42.702;23.200;2022-12-18T11:08:46;95238.97;;;4.31;67.46
55468;BME280;41332;42.702;23.200;2022-12-18T11:11:23;95239.97;;;4.25;67.50
55468;BME280;41332;42.702;23.200;2022-12-18T11:14:11;95240.44;;;4.17;66.95
55468;BME280;41332;42.702;23.200;2022-12-18T11:16:46;95241.47;;;4.16;67.14
55468;BME280;41332;42.702;23.200;2022-12-18T11:21:50;95245.84;;;4.10;66.53
55468;BME280;41332;42.702;23.200;2022-12-18T11:24:31;95252.06;;;4.09;65.18
55468;BME280;41332;42.702;23.200;2022-12-18T11:26:58;95256.50;;;4.08;66.55
55468;BME280;41332;42.702;23.200;2022-12-18T11:29:36;95258.38;;;4.13;66.42
55468;BME280;41332;42.702;23.200;2022-12-18T11:32:22;95249.69;;;4.02;65.60
55468;BME280;41332;42.702;23.200;2022-12-18T11:34:55;95253.56;;;4.00;65.15
55468;BME280;41332;42.702;23.200;2022-12-18T11:37:23;95248.94;;;4.02;65.22
55468;BME280;41332;42.702;23.200;2022-12-18T11:39:54;95246.00;;;3.93;64.33
55468;BME280;41332;42.702;23.200;2022-12-18T11:42:54;95236.38;;;3.88;65.85
55468;BME280;41332;42.702;23.200;2022-12-18T11:45:29;95250.88;;;3.84;66.56
55468;BME280;41332;42.702;23.200;2022-12-18T11:48:09;95244.69;;;3.90;66.48
55468;BME280;41332;42.702;23.200;2022-12-18T11:53:02;95246.88;;;4.09;65.94
55468;BME280;41332;42.702;23.200;2022-12-18T12:14:43;95240.91;;;4.08;66.42
55468;BME280;41332;42.702;23.200;2022-12-18T12:20:17;95251.44;;;4.29;66.74
55468;BME280;41332;42.702;23.200;2022-12-18T12:25:31;95242.91;;;4.39;66.58
55468;BME280;41332;42.702;23.200;2022-12-18T12:28:16;95244.69;;;4.33;65.73
55468;BME280;41332;42.702;23.200;2022-12-18T12:31:07;95250.38;;;4.25;66.55
55468;BME280;41332;42.702;23.200;2022-12-18T12:39:30;95241.53;;;4.26;67.28
55468;BME280;41332;42.702;23.200;2022-12-18T12:41:57;95236.59;;;4.29;67.30
55468;BME280;41332;42.702;23.200;2022-12-18T12:44:54;95243.66;;;4.34;67.39
55468;BME280;41332;42.702;23.200;2022-12-18T12:47:46;95248.09;;;4.34;66.24
55468;BME280;41332;42.702;23.200;2022-12-18T12:50:17;95252.50;;;4.33;66.43
55468;BME280;41332;42.702;23.200;2022-12-18T12:52:52;95255.03;;;4.23;66.76
55468;BME280;41332;42.702;23.200;2022-12-18T12:55:21;95248.56;;;4.31;66.13
55468;BME280;41332;42.702;23.200;2022-12-18T13:00:40;95254.03;;;4.29;66.20
55468;BME280;41332;42.702;23.200;2022-12-18T13:06:44;95260.06;;;4.40;66.79
55468;BME280;41332;42.702;23.200;2022-12-18T13:09:17;95258.28;;;4.40;65.80
55468;BME280;41332;42.702;23.200;2022-12-18T13:11:46;95267.38;;;4.38;65.68
55468;BME280;41332;42.702;23.200;2022-12-18T13:14:35;95271.53;;;4.39;66.50
55468;BME280;41332;42.702;23.200;2022-12-18T13:20:11;95276.88;;;4.22;65.72
55468;BME280;41332;42.702;23.200;2022-12-18T13:25:38;95282.44;;;4.36;66.55
55468;BME280;41332;42.702;23.200;2022-12-18T13:28:10;95283.22;;;4.36;66.26
55468;BME280;41332;42.702;23.200;2022-12-18T13:38:46;95284.50;;;4.34;65.84
55468;BME280;41332;42.702;23.200;2022-12-18T13:43:46;95291.03;;;4.36;66.01
55468;BME280;41332;42.702;23.200;2022-12-18T13:46:20;95295.72;;;4.39;65.51
55468;BME280;41332;42.702;23.200;2022-12-18T13:48:56;95296.25;;;4.36;65.82
55468;BME280;41332;42.702;23.200;2022-12-18T13:51:23;95293.84;;;4.35;65.66
55468;BME280;41332;42.702;23.200;2022-12-18T13:53:55;95304.53;;;4.33;65.15
55468;BME280;41332;42.702;23.200;2022-12-18T13:56:25;95306.38;;;4.38;65.62
55468;BME280;41332;42.702;23.200;2022-12-18T14:02:00;95305.38;;;4.44;63.62
55468;BME280;41332;42.702;23.200;2022-12-18T14:04:33;95310.56;;;4.39;64.51
55468;BME280;41332;42.702;23.200;2022-12-18T14:07:15;95313.34;;;4.32;64.33
55468;BME280;41332;42.702;23.200;2022-12-18T14:09:44;95307.94;;;4.34;64.06
55468;BME280;41332;42.702;23.200;2022-12-18T14:12:20;95304.75;;;4.26;63.23
55468;BME280;41332;42.702;23.200;2022-12-18T14:17:36;95307.63;;;4.30;64.16
55468;BME280;41332;42.702;23.200;2022-12-18T14:20:13;95320.13;;;4.33;64.42
55468;BME280;41332;42.702;23.200;2022-12-18T14:22:43;95322.47;;;4.35;64.16
55468;BME280;41332;42.702;23.200;2022-12-18T14:27:43;95319.28;;;4.22;63.05
55468;BME280;41332;42.702;23.200;2022-12-18T14:30:30;95332.22;;;4.12;62.64
55468;BME280;41332;42.702;23.200;2022-12-18T14:33:04;95326.16;;;4.06;62.04
55468;BME280;41332;42.702;23.200;2022-12-18T14:35:32;95320.97;;;4.06;62.69
55468;BME280;41332;42.702;23.200;2022-12-18T14:40:44;95321.50;;;4.08;62.41
55468;BME280;41332;42.702;23.200;2022-12-18T14:43:13;95320.34;;;3.94;62.40
55468;BME280;41332;42.702;23.200;2022-12-18T14:45:45;95318.88;;;4.03;62.99
55468;BME280;41332;42.702;23.200;2022-12-18T14:50:37;95322.25;;;4.04;62.66
55468;BME280;41332;42.702;23.200;2022-12-18T14:53:02;95323.56;;;4.06;62.81
55468;BME280;41332;42.702;23.200;2022-12-18T14:55:28;95325.69;;;4.09;63.21
55468;BME280;41332;42.702;23.200;2022-12-18T14:57:55;95329.59;;;4.12;62.83
55468;BME280;41332;42.702;23.200;2022-12-18T15:00:23;95334.50;;;4.08;62.33